Time;durP1;ratioP1;P1;durP2;ratioP2;P2;SDS_P1;SDS_P2;PMS_P1;PMS_P2;Temp;Humidity;BMP_temperature;BMP_pressure;BME280_temperature;BME280_humidity;BME280_pressure;Samples;Min_cycle;Max_cycle;Signal;HPM_P1;HPM_P2
2021/03/16 00:01:06;;;;;;;14.50;2.60;;;;;;;;;;5030704;28;20175;-80
2021/03/16 00:03:32;;;;;;;13.63;2.20;;;;;;;;;;5030688;28;20191;-78
2021/03/16 00:05:58;;;;;;;12.53;2.60;;;;;;;;;;5014186;28;20584;-77
2021/03/16 00:08:24;;;;;;;12.33;2.47;;;;;;;;;;5030966;28;20182;-76
2021/03/16 00:10:50;;;;;;;13.30;2.20;;;;;;;;;;5031578;28;20206;-76
2021/03/16 00:13:16;;;;;;;12.80;2.27;;;;;;;;;;5031264;28;20278;-77
2021/03/16 00:15:42;;;;;;;11.13;2.07;;;;;;;;;;5030760;28;20209;-78
2021/03/16 00:18:14;;;;;;;10.73;2.30;;;;;;;;;;5030356;28;20293;-78
2021/03/16 00:20:40;;;;;;;15.87;2.63;;;;;;;;;;5032006;28;20266;-77
2021/03/16 00:23:07;;;;;;;10.27;2.00;;;;;;;;;;5030449;28;20179;-79
2021/03/16 00:25:33;;;;;;;9.17;1.97;;;;;;;;;;5031642;28;20222;-78
2021/03/16 00:27:59;;;;;;;9.53;2.10;;;;;;;;;;5030375;28;20186;-79
2021/03/16 00:30:25;;;;;;;12.40;2.23;;;;;;;;;;5014178;28;20179;-77
2021/03/16 00:32:51;;;;;;;7.53;1.90;;;;;;;;;;5030526;28;20668;-77
2021/03/16 00:35:17;;;;;;;11.53;2.20;;;;;;;;;;5031539;28;20210;-76
2021/03/16 00:37:43;;;;;;;15.97;2.03;;;;;;;;;;5030401;28;20356;-78
2021/03/16 00:40:10;;;;;;;11.13;2.20;;;;;;;;;;5013630;28;20175;-78
2021/03/16 00:42:36;;;;;;;12.07;2.37;;;;;;;;;;5030205;28;20198;-76
2021/03/16 00:45:02;;;;;;;14.30;2.10;;;;;;;;;;5030360;28;20171;-76
2021/03/16 00:47:28;;;;;;;11.37;2.50;;;;;;;;;;5030219;28;20199;-76
2021/03/16 00:49:54;;;;;;;10.87;2.33;;;;;;;;;;5031077;28;20175;-76
2021/03/16 00:52:20;;;;;;;7.97;2.00;;;;;;;;;;5035399;28;20558;-76
2021/03/16 00:54:46;;;;;;;10.63;2.20;;;;;;;;;;5033948;28;20232;-76
2021/03/16 00:57:12;;;;;;;9.40;2.47;;;;;;;;;;5033649;28;20215;-76
2021/03/16 00:59:38;;;;;;;14.93;2.57;;;;;;;;;;5035059;28;20175;-77
2021/03/16 01:02:04;;;;;;;8.70;1.87;;;;;;;;;;5017365;28;20214;-76
2021/03/16 01:04:30;;;;;;;8.73;2.00;;;;;;;;;;5034180;28;20206;-76
2021/03/16 01:06:55;;;;;;;8.80;2.00;;;;;;;;;;5033757;28;20737;-76
2021/03/16 01:09:21;;;;;;;12.07;2.23;;;;;;;;;;5034088;28;20183;-78
2021/03/16 01:11:47;;;;;;;10.83;2.13;;;;;;;;;;5035422;28;20233;-78
2021/03/16 01:14:13;;;;;;;10.93;2.27;;;;;;;;;;5017638;28;20179;-78
2021/03/16 01:16:39;;;;;;;17.40;2.43;;;;;;;;;;5034069;28;20195;-77
2021/03/16 01:19:05;;;;;;;15.57;2.90;;;;;;;;;;5033815;28;20186;-78
2021/03/16 01:21:31;;;;;;;12.43;2.73;;;;;;;;;;5033871;28;20237;-77
2021/03/16 01:23:57;;;;;;;10.80;2.10;;;;;;;;;;5034117;28;20182;-79
2021/03/16 01:26:23;;;;;;;8.80;2.30;;;;;;;;;;5033542;28;20213;-78
2021/03/16 01:28:49;;;;;;;12.53;2.30;;;;;;;;;;5034868;28;20225;-79
2021/03/16 01:31:15;;;;;;;14.20;2.47;;;;;;;;;;5034650;28;20175;-79
2021/03/16 01:33:41;;;;;;;11.37;2.30;;;;;;;;;;5033443;28;20226;-79
2021/03/16 01:36:07;;;;;;;9.80;2.03;;;;;;;;;;5033519;28;20199;-79
2021/03/16 01:38:33;;;;;;;10.70;2.50;;;;;;;;;;5033195;28;20625;-79
2021/03/16 01:40:59;;;;;;;13.10;2.50;;;;;;;;;;5033400;28;20178;-79
2021/03/16 01:43:26;;;;;;;17.33;2.43;;;;;;;;;;5017175;28;20175;-79
2021/03/16 01:45:52;;;;;;;17.77;2.73;;;;;;;;;;5016962;28;20209;-77
2021/03/16 01:48:19;;;;;;;15.47;2.70;;;;;;;;;;5033074;28;20187;-77
2021/03/16 01:50:45;;;;;;;24.23;3.20;;;;;;;;;;5018751;28;20569;-79
2021/03/16 01:53:11;;;;;;;12.23;2.30;;;;;;;;;;5034183;28;20730;-79
2021/03/16 01:55:37;;;;;;;12.37;2.20;;;;;;;;;;5033122;28;20280;-79
2021/03/16 01:58:03;;;;;;;12.30;2.70;;;;;;;;;;5016920;28;20228;-79
2021/03/16 02:00:36;;;;;;;16.23;2.80;;;;;;;;;;5016427;28;20183;-79
2021/03/16 02:03:03;;;;;;;12.37;2.67;;;;;;;;;;5032405;28;20636;-78
2021/03/16 02:05:28;;;;;;;14.07;2.43;;;;;;;;;;5033020;28;20207;-79
2021/03/16 02:08:04;;;;;;;11.80;2.30;;;;;;;;;;5016381;28;20185;-79
2021/03/16 02:10:49;;;;;;;14.03;2.50;;;;;;;;;;5032492;28;20185;-79
2021/03/16 02:13:21;;;;;;;12.87;2.47;;;;;;;;;;5032672;28;20274;-77
2021/03/16 02:15:47;;;;;;;12.50;2.13;;;;;;;;;;5033949;28;20273;-79
2021/03/16 02:18:14;;;;;;;14.93;2.83;;;;;;;;;;5032829;28;20257;-79
2021/03/16 02:20:59;;;;;;;12.53;2.57;;;;;;;;;;5032788;28;20293;-79
2021/03/16 02:23:43;;;;;;;10.47;2.07;;;;;;;;;;5033958;28;20190;-78
2021/03/16 02:26:17;;;;;;;12.60;2.30;;;;;;;;;;5039904;28;20226;-79
2021/03/16 02:28:58;;;;;;;15.47;2.70;;;;;;;;;;5032882;28;20563;-78
2021/03/16 02:31:24;;;;;;;18.93;2.83;;;;;;;;;;5033585;28;20190;-78
2021/03/16 02:33:50;;;;;;;18.73;2.80;;;;;;;;;;5016109;28;20194;-77
2021/03/16 02:36:16;;;;;;;12.80;2.13;;;;;;;;;;5015946;28;20329;-78
2021/03/16 02:38:43;;;;;;;16.83;3.60;;;;;;;;;;5016024;28;20750;-79
2021/03/16 02:41:10;;;;;;;15.43;2.87;;;;;;;;;;5032186;28;20172;-79
2021/03/16 02:43:36;;;;;;;15.67;2.37;;;;;;;;;;5015848;28;20184;-79
2021/03/16 02:46:03;;;;;;;10.37;2.20;;;;;;;;;;5015610;28;20302;-79
2021/03/16 02:48:29;;;;;;;11.20;2.47;;;;;;;;;;5032205;28;20236;-79
2021/03/16 02:50:54;;;;;;;15.67;2.30;;;;;;;;;;5032155;28;20182;-79
2021/03/16 02:53:20;;;;;;;15.13;2.47;;;;;;;;;;5032228;28;20258;-80
2021/03/16 02:55:46;;;;;;;19.00;2.90;;;;;;;;;;5032132;28;20667;-79
2021/03/16 02:58:12;;;;;;;11.70;2.40;;;;;;;;;;5032383;28;20217;-80
2021/03/16 03:00:39;;;;;;;16.17;2.43;;;;;;;;;;5032361;28;20175;-78
2021/03/16 03:03:05;;;;;;;14.17;2.70;;;;;;;;;;5032122;28;20302;-79
2021/03/16 03:05:31;;;;;;;16.33;2.43;;;;;;;;;;5032706;28;20588;-80
2021/03/16 03:07:57;;;;;;;10.50;2.13;;;;;;;;;;5031718;28;20179;-79
2021/03/16 03:10:24;;;;;;;16.87;2.60;;;;;;;;;;5015035;28;20189;-79
2021/03/16 03:12:51;;;;;;;10.23;2.13;;;;;;;;;;5031513;28;20179;-79
2021/03/16 03:15:17;;;;;;;11.87;2.07;;;;;;;;;;5032207;28;20465;-79
2021/03/16 03:17:43;;;;;;;10.13;1.93;;;;;;;;;;5031320;28;20233;-79
2021/03/16 03:20:10;;;;;;;14.87;2.43;;;;;;;;;;5032417;28;20631;-79
2021/03/16 03:22:36;;;;;;;14.47;2.70;;;;;;;;;;5032649;28;20183;-79
2021/03/16 03:25:05;;;;;;;12.47;2.70;;;;;;;;;;5032541;28;20598;-79
2021/03/16 03:27:35;;;;;;;17.33;2.60;;;;;;;;;;5031368;28;20538;-80
2021/03/16 03:30:01;;;;;;;13.37;2.53;;;;;;;;;;5014994;28;20217;-80
2021/03/16 03:32:28;;;;;;;13.63;2.53;;;;;;;;;;5015030;28;20580;-79
2021/03/16 03:34:54;;;;;;;11.20;2.47;;;;;;;;;;5031397;28;20261;-79
2021/03/16 03:37:23;;;;;;;11.93;2.13;;;;;;;;;;5028709;28;20285;-80
2021/03/16 03:39:49;;;;;;;11.23;2.10;;;;;;;;;;5051113;28;20181;-80
2021/03/16 03:42:15;;;;;;;17.37;2.37;;;;;;;;;;5051004;28;20175;-79
2021/03/16 03:44:41;;;;;;;10.33;2.00;;;;;;;;;;5051026;28;20569;-79
2021/03/16 03:47:07;;;;;;;12.33;2.03;;;;;;;;;;5051156;28;20198;-79
2021/03/16 03:49:33;;;;;;;10.43;1.80;;;;;;;;;;5034332;28;20665;-79
2021/03/16 03:51:59;;;;;;;11.37;2.50;;;;;;;;;;5051264;28;20690;-79
2021/03/16 03:54:25;;;;;;;10.50;2.53;;;;;;;;;;5051850;28;20654;-79
2021/03/16 03:56:51;;;;;;;17.53;2.57;;;;;;;;;;5034354;28;20698;-79
2021/03/16 03:59:17;;;;;;;12.70;2.13;;;;;;;;;;5050642;28;20199;-77
2021/03/16 04:01:43;;;;;;;13.00;2.33;;;;;;;;;;5050895;28;20178;-79
2021/03/16 04:04:09;;;;;;;10.07;2.10;;;;;;;;;;5050888;28;20215;-79
2021/03/16 04:06:35;;;;;;;13.17;2.47;;;;;;;;;;5050458;28;20214;-78
2021/03/16 04:09:01;;;;;;;11.13;2.63;;;;;;;;;;5050871;28;20178;-79
2021/03/16 04:11:27;;;;;;;9.03;2.20;;;;;;;;;;5050695;28;20228;-80
2021/03/16 04:13:53;;;;;;;10.40;2.30;;;;;;;;;;5034098;28;20178;-79
2021/03/16 04:16:22;;;;;;;13.57;2.50;;;;;;;;;;5050729;28;20195;-78
2021/03/16 04:18:48;;;;;;;11.90;1.97;;;;;;;;;;5034149;28;20210;-79
2021/03/16 04:21:14;;;;;;;15.13;2.07;;;;;;;;;;5050514;28;20174;-79
2021/03/16 04:23:40;;;;;;;14.30;2.47;;;;;;;;;;5050619;28;20261;-79
2021/03/16 04:26:06;;;;;;;15.30;2.67;;;;;;;;;;5037297;28;20293;-79
2021/03/16 04:28:32;;;;;;;11.30;1.67;;;;;;;;;;5056072;28;20233;-79
2021/03/16 04:30:58;;;;;;;15.63;2.57;;;;;;;;;;5055828;28;20182;-79
2021/03/16 04:33:24;;;;;;;12.70;1.90;;;;;;;;;;5056382;28;20223;-76
2021/03/16 04:35:50;;;;;;;11.73;1.93;;;;;;;;;;5039988;28;20237;-79
2021/03/16 04:38:16;;;;;;;14.07;1.90;;;;;;;;;;5037792;28;20265;-79
2021/03/16 04:40:42;;;;;;;8.83;2.13;;;;;;;;;;5055585;28;20174;-78
2021/03/16 04:43:08;;;;;;;11.47;2.10;;;;;;;;;;5054558;28;20170;-78
2021/03/16 04:45:34;;;;;;;12.60;2.10;;;;;;;;;;5055641;28;20243;-79
2021/03/16 04:48:00;;;;;;;9.77;2.10;;;;;;;;;;5037873;28;20185;-79
2021/03/16 04:50:26;;;;;;;13.60;2.40;;;;;;;;;;5037655;28;20278;-76
2021/03/16 04:52:52;;;;;;;18.83;2.40;;;;;;;;;;5054337;28;20189;-77
2021/03/16 04:55:18;;;;;;;10.07;2.07;;;;;;;;;;5037933;28;20221;-79
2021/03/16 04:57:44;;;;;;;13.13;2.30;;;;;;;;;;5054072;28;20216;-79
2021/03/16 05:00:10;;;;;;;11.80;2.27;;;;;;;;;;5055764;28;20257;-78
2021/03/16 05:02:36;;;;;;;12.30;2.03;;;;;;;;;;5037924;28;20178;-77
2021/03/16 05:05:03;;;;;;;11.50;1.97;;;;;;;;;;5054037;28;20606;-77
2021/03/16 05:07:30;;;;;;;11.13;2.10;;;;;;;;;;5082406;22;20233;-74
2021/03/16 05:09:56;;;;;;;8.17;2.00;;;;;;;;;;5053468;28;20178;-74
2021/03/16 05:12:22;;;;;;;12.17;2.10;;;;;;;;;;5054787;28;20517;-74
2021/03/16 05:14:48;;;;;;;13.47;2.03;;;;;;;;;;5053637;28;20728;-75
2021/03/16 05:17:14;;;;;;;8.80;2.13;;;;;;;;;;5038685;28;20214;-73
2021/03/16 05:19:40;;;;;;;11.77;2.10;;;;;;;;;;5033263;28;20237;-75
2021/03/16 05:22:06;;;;;;;11.13;2.07;;;;;;;;;;5017032;28;20179;-75
2021/03/16 05:24:33;;;;;;;15.83;2.60;;;;;;;;;;5033336;28;20274;-75
2021/03/16 05:26:59;;;;;;;10.87;2.13;;;;;;;;;;5033359;28;20679;-77
2021/03/16 05:29:25;;;;;;;13.10;2.50;;;;;;;;;;5034519;28;20258;-75
2021/03/16 05:31:52;;;;;;;14.63;2.37;;;;;;;;;;5016887;28;20179;-75
2021/03/16 05:34:18;;;;;;;10.70;2.10;;;;;;;;;;5033141;28;20183;-75
2021/03/16 05:36:44;;;;;;;14.20;2.20;;;;;;;;;;5016561;28;20242;-75
2021/03/16 05:39:10;;;;;;;15.37;2.20;;;;;;;;;;5034402;28;20241;-76
2021/03/16 05:41:39;;;;;;;15.53;2.47;;;;;;;;;;5033441;28;20179;-76
2021/03/16 05:44:05;;;;;;;11.20;2.07;;;;;;;;;;5033541;28;20240;-76
2021/03/16 05:46:32;;;;;;;10.93;1.90;;;;;;;;;;5034031;28;20206;-77
2021/03/16 05:49:00;;;;;;;10.67;2.43;;;;;;;;;;5020334;28;20204;-76
2021/03/16 05:51:26;;;;;;;13.70;2.50;;;;;;;;;;5034104;28;20179;-76
2021/03/16 05:53:53;;;;;;;11.43;2.60;;;;;;;;;;5033450;28;20179;-76
2021/03/16 05:56:20;;;;;;;12.03;2.10;;;;;;;;;;5008394;28;20633;-75
2021/03/16 05:58:46;;;;;;;8.30;1.80;;;;;;;;;;5011029;28;20207;-75
2021/03/16 06:01:14;;;;;;;15.87;2.60;;;;;;;;;;5013596;28;20176;-75
2021/03/16 06:03:40;;;;;;;11.07;2.17;;;;;;;;;;5033283;28;20697;-76
2021/03/16 06:06:08;;;;;;;16.60;2.33;;;;;;;;;;5033209;28;20264;-76
2021/03/16 06:08:34;;;;;;;10.30;2.17;;;;;;;;;;5032878;28;20193;-75
2021/03/16 06:11:00;;;;;;;13.70;2.60;;;;;;;;;;5032842;28;20583;-78
2021/03/16 06:13:26;;;;;;;12.03;2.57;;;;;;;;;;5033131;28;20232;-75
2021/03/16 06:15:55;;;;;;;11.57;2.37;;;;;;;;;;5016356;28;20213;-75
2021/03/16 06:18:24;;;;;;;10.10;2.57;;;;;;;;;;5033023;28;20663;-75
2021/03/16 06:20:59;;;;;;;12.37;2.50;;;;;;;;;;5016470;28;20647;-75
2021/03/16 06:23:29;;;;;;;10.00;2.57;;;;;;;;;;5027709;28;20202;-75
2021/03/16 06:25:56;;;;;;;14.10;2.50;;;;;;;;;;5032009;28;20207;-75
2021/03/16 06:28:21;;;;;;;15.27;2.50;;;;;;;;;;5030770;28;20419;-75
2021/03/16 06:30:48;;;;;;;13.47;2.47;;;;;;;;;;5032194;28;20183;-75
2021/03/16 06:33:18;;;;;;;13.70;2.40;;;;;;;;;;5033494;28;20179;-75
2021/03/16 06:36:03;;;;;;;9.87;2.30;;;;;;;;;;5015728;28;20209;-75
2021/03/16 06:38:29;;;;;;;11.67;2.20;;;;;;;;;;5031840;28;20207;-75
2021/03/16 06:40:56;;;;;;;10.90;2.30;;;;;;;;;;5031687;28;20182;-75
2021/03/16 06:43:25;;;;;;;11.50;2.27;;;;;;;;;;5014474;28;20223;-74
2021/03/16 06:45:52;;;;;;;11.80;2.23;;;;;;;;;;5029085;28;20207;-73
2021/03/16 06:48:19;;;;;;;10.63;2.27;;;;;;;;;;5025839;28;20191;-73
2021/03/16 06:50:45;;;;;;;12.63;2.20;;;;;;;;;;5006952;28;20190;-74
2021/03/16 06:53:29;;;;;;;8.80;1.87;;;;;;;;;;5028744;28;20183;-75
2021/03/16 06:55:56;;;;;;;12.47;2.23;;;;;;;;;;5024985;28;20286;-75
2021/03/16 06:58:22;;;;;;;9.93;2.40;;;;;;;;;;5031426;28;20195;-74
2021/03/16 07:00:49;;;;;;;12.67;2.37;;;;;;;;;;5031471;28;20183;-74
2021/03/16 07:03:15;;;;;;;11.50;2.00;;;;;;;;;;5028359;28;20548;-72
2021/03/16 07:05:42;;;;;;;10.77;2.43;;;;;;;;;;5030315;28;20559;-75
2021/03/16 07:08:08;;;;;;;8.83;2.10;;;;;;;;;;5029841;28;20221;-74
2021/03/16 07:10:35;;;;;;;10.87;2.53;;;;;;;;;;5031261;28;20195;-74
2021/03/16 07:13:01;;;;;;;7.93;1.87;;;;;;;;;;5045423;28;20212;-75
2021/03/16 07:15:29;;;;;;;11.17;2.30;;;;;;;;;;5034383;28;20262;-75
2021/03/16 07:17:57;;;;;;;11.50;2.03;;;;;;;;;;5016905;28;20630;-74
2021/03/16 07:20:23;;;;;;;12.30;2.43;;;;;;;;;;5030815;28;20183;-74
2021/03/16 07:22:51;;;;;;;8.87;1.90;;;;;;;;;;5031030;28;20209;-76
2021/03/16 07:25:17;;;;;;;12.13;2.37;;;;;;;;;;5021042;28;20206;-74
2021/03/16 07:27:43;;;;;;;12.47;2.03;;;;;;;;;;5025552;28;20182;-74
2021/03/16 07:30:10;;;;;;;11.60;1.83;;;;;;;;;;5031119;28;20194;-76
2021/03/16 07:32:36;;;;;;;12.33;3.03;;;;;;;;;;5015853;28;20534;-75
2021/03/16 07:35:02;;;;;;;12.10;2.20;;;;;;;;;;5040112;28;20550;-74
2021/03/16 07:37:28;;;;;;;14.77;2.53;;;;;;;;;;5022069;28;20199;-75
2021/03/16 07:39:55;;;;;;;10.00;2.10;;;;;;;;;;5039730;28;20269;-75
2021/03/16 07:42:21;;;;;;;12.53;1.90;;;;;;;;;;5027827;28;20661;-75
2021/03/16 07:44:47;;;;;;;7.73;1.77;;;;;;;;;;5043496;28;20174;-75
2021/03/16 07:47:13;;;;;;;9.73;2.10;;;;;;;;;;5040461;28;20198;-75
2021/03/16 07:49:39;;;;;;;8.63;1.90;;;;;;;;;;5028596;28;20181;-76
2021/03/16 07:52:18;;;;;;;9.30;1.60;;;;;;;;;;5034127;28;20201;-76
2021/03/16 07:54:48;;;;;;;10.63;2.00;;;;;;;;;;5040956;28;20191;-77
2021/03/16 07:57:25;;;;;;;10.53;2.17;;;;;;;;;;5017274;28;20208;-76
2021/03/16 08:00:00;;;;;;;8.07;2.07;;;;;;;;;;5037617;28;20178;-77
2021/03/16 08:02:27;;;;;;;9.60;2.00;;;;;;;;;;5004327;28;20213;-75
2021/03/16 08:04:53;;;;;;;8.90;1.70;;;;;;;;;;5009186;28;20226;-75
2021/03/16 08:07:21;;;;;;;5.20;1.37;;;;;;;;;;5017491;28;20674;-75
2021/03/16 08:09:57;;;;;;;7.10;1.30;;;;;;;;;;4994631;28;20207;-75
2021/03/16 08:12:26;;;;;;;7.03;1.43;;;;;;;;;;4999620;28;20180;-75
2021/03/16 08:14:52;;;;;;;3.90;0.93;;;;;;;;;;5022736;28;20189;-75
2021/03/16 08:17:45;;;;;;;8.87;1.47;;;;;;;;;;5023130;28;20203;-78
2021/03/16 08:20:21;;;;;;;9.83;1.57;;;;;;;;;;5025009;28;20187;-76
2021/03/16 08:22:47;;;;;;;7.87;1.50;;;;;;;;;;4994216;28;20218;-75
2021/03/16 08:25:13;;;;;;;8.90;1.67;;;;;;;;;;4994330;28;20214;-76
2021/03/16 08:27:39;;;;;;;6.67;1.40;;;;;;;;;;4993986;28;20238;-75
2021/03/16 08:30:05;;;;;;;9.10;1.57;;;;;;;;;;5026289;28;20183;-75
2021/03/16 08:32:31;;;;;;;5.27;1.30;;;;;;;;;;5000878;28;20184;-75
2021/03/16 08:34:58;;;;;;;6.97;1.90;;;;;;;;;;5041378;28;20237;-75
2021/03/16 08:37:25;;;;;;;8.20;1.70;;;;;;;;;;5013667;28;20207;-77
2021/03/16 08:39:51;;;;;;;5.30;1.30;;;;;;;;;;4997301;28;20176;-76
2021/03/16 08:42:22;;;;;;;7.80;1.77;;;;;;;;;;5013950;28;20228;-76
2021/03/16 08:44:48;;;;;;;4.70;1.33;;;;;;;;;;5018247;28;20183;-76
2021/03/16 08:47:17;;;;;;;6.70;1.40;;;;;;;;;;5020188;28;20469;-75
2021/03/16 08:49:44;;;;;;;8.13;1.50;;;;;;;;;;5038960;28;20187;-76
2021/03/16 08:52:26;;;;;;;9.03;1.57;;;;;;;;;;5036896;28;20178;-75
2021/03/16 08:54:53;;;;;;;11.90;1.90;;;;;;;;;;5038127;28;20652;-76
2021/03/16 08:57:23;;;;;;;6.60;1.70;;;;;;;;;;5038918;28;20203;-76
2021/03/16 08:59:50;;;;;;;11.77;1.93;;;;;;;;;;5036121;28;20258;-76
2021/03/16 09:02:23;;;;;;;9.93;1.90;;;;;;;;;;5036735;28;20182;-76
2021/03/16 09:04:49;;;;;;;10.07;1.70;;;;;;;;;;5021630;28;20181;-76
2021/03/16 09:07:25;;;;;;;6.70;1.60;;;;;;;;;;5045515;28;20755;-76
2021/03/16 09:10:07;;;;;;;6.90;1.90;;;;;;;;;;5022168;28;20186;-76
2021/03/16 09:12:35;;;;;;;8.40;1.87;;;;;;;;;;5032797;28;20229;-76
2021/03/16 09:15:07;;;;;;;6.50;1.50;;;;;;;;;;5019275;28;20247;-78
2021/03/16 09:17:36;;;;;;;6.23;1.63;;;;;;;;;;5029840;28;20223;-77
2021/03/16 09:20:14;;;;;;;7.07;1.80;;;;;;;;;;5048543;28;20287;-75
2021/03/16 09:22:40;;;;;;;8.30;1.70;;;;;;;;;;5018942;28;20196;-76
2021/03/16 09:25:09;;;;;;;11.57;1.63;;;;;;;;;;5021775;28;20175;-75
2021/03/16 09:27:36;;;;;;;6.47;1.60;;;;;;;;;;5033922;28;20207;-76
2021/03/16 09:30:02;;;;;;;10.03;1.60;;;;;;;;;;5018011;28;20194;-77
2021/03/16 09:32:28;;;;;;;4.60;1.30;;;;;;;;;;5017173;28;20183;-77
2021/03/16 09:34:55;;;;;;;3.37;1.50;;;;;;;;;;5017487;28;20197;-77
2021/03/16 09:37:22;;;;;;;3.83;1.30;;;;;;;;;;5016891;28;20575;-78
2021/03/16 09:39:52;;;;;;;3.73;1.10;;;;;;;;;;5017735;28;20668;-77
2021/03/16 09:42:18;;;;;;;6.93;1.60;;;;;;;;;;5019007;28;20214;-78
2021/03/16 09:44:45;;;;;;;5.53;1.27;;;;;;;;;;5038426;28;20608;-76
2021/03/16 09:47:12;;;;;;;7.13;1.23;;;;;;;;;;5034491;28;20640;-76
2021/03/16 09:49:39;;;;;;;5.63;1.20;;;;;;;;;;5039336;28;20312;-76
2021/03/16 09:52:10;;;;;;;4.17;1.00;;;;;;;;;;5015270;28;20181;-76
2021/03/16 09:54:40;;;;;;;5.63;1.30;;;;;;;;;;5016921;28;20181;-76
2021/03/16 09:57:09;;;;;;;7.10;1.53;;;;;;;;;;5006785;28;20808;-76
2021/03/16 09:59:36;;;;;;;7.23;1.17;;;;;;;;;;5027711;28;20181;-75
2021/03/16 10:02:03;;;;;;;7.83;1.40;;;;;;;;;;5000345;28;20169;-76
2021/03/16 10:04:29;;;;;;;7.77;1.40;;;;;;;;;;5013190;28;20710;-77
2021/03/16 10:06:58;;;;;;;5.33;1.30;;;;;;;;;;5019907;28;20225;-76
2021/03/16 10:09:26;;;;;;;8.63;1.70;;;;;;;;;;5006245;28;20186;-77
2021/03/16 10:11:53;;;;;;;3.40;1.00;;;;;;;;;;5019461;28;20205;-76
2021/03/16 10:14:25;;;;;;;5.67;1.20;;;;;;;;;;5016227;28;20552;-76
2021/03/16 10:16:53;;;;;;;5.90;1.57;;;;;;;;;;5033688;28;20679;-76
2021/03/16 10:19:21;;;;;;;3.33;1.20;;;;;;;;;;5034313;28;20221;-81
2021/03/16 10:21:47;;;;;;;6.50;1.30;;;;;;;;;;5007437;28;20189;-76
2021/03/16 10:24:13;;;;;;;6.07;0.83;;;;;;;;;;5032377;28;20167;-76
2021/03/16 10:26:40;;;;;;;3.77;1.00;;;;;;;;;;5011336;28;20198;-76
2021/03/16 10:29:10;;;;;;;4.90;0.97;;;;;;;;;;5016594;28;20722;-76
2021/03/16 10:31:36;;;;;;;5.63;1.07;;;;;;;;;;5031611;28;20281;-76
2021/03/16 10:34:02;;;;;;;3.77;0.77;;;;;;;;;;5032148;28;20177;-76
2021/03/16 10:36:34;;;;;;;6.50;0.93;;;;;;;;;;5016528;28;20218;-77
2021/03/16 10:39:00;;;;;;;4.53;1.10;;;;;;;;;;5036037;28;20644;-77
2021/03/16 10:41:26;;;;;;;3.60;0.80;;;;;;;;;;5020446;28;20189;-77
2021/03/16 10:43:52;;;;;;;4.67;0.80;;;;;;;;;;5020384;28;20558;-77
2021/03/16 10:46:18;;;;;;;3.97;0.97;;;;;;;;;;5019681;28;20202;-77
2021/03/16 10:48:45;;;;;;;3.70;0.87;;;;;;;;;;5035895;28;20190;-77
2021/03/16 10:51:11;;;;;;;3.10;0.73;;;;;;;;;;5018759;28;20208;-77
2021/03/16 10:53:37;;;;;;;5.83;1.10;;;;;;;;;;5019978;28;20281;-77
2021/03/16 10:56:03;;;;;;;3.53;1.00;;;;;;;;;;5036221;28;20213;-77
2021/03/16 10:58:29;;;;;;;5.47;1.00;;;;;;;;;;5036857;28;20206;-76
2021/03/16 11:00:56;;;;;;;6.67;1.10;;;;;;;;;;5031298;28;20233;-76
2021/03/16 11:03:22;;;;;;;5.83;1.23;;;;;;;;;;5031469;28;20182;-76
2021/03/16 11:05:48;;;;;;;4.03;1.00;;;;;;;;;;5014941;28;20626;-77
2021/03/16 11:08:14;;;;;;;4.80;1.00;;;;;;;;;;5032719;28;20276;-76
2021/03/16 11:10:40;;;;;;;4.40;1.13;;;;;;;;;;5032493;28;20186;-76
2021/03/16 11:13:07;;;;;;;5.30;1.00;;;;;;;;;;5015218;28;20183;-78
2021/03/16 11:15:33;;;;;;;2.40;0.73;;;;;;;;;;5017865;28;20214;-77
2021/03/16 11:17:59;;;;;;;5.93;1.13;;;;;;;;;;5034219;28;20591;-76
2021/03/16 11:20:26;;;;;;;4.57;1.20;;;;;;;;;;5017687;28;20655;-76
2021/03/16 11:22:52;;;;;;;4.83;1.03;;;;;;;;;;5017320;28;20195;-76
2021/03/16 11:25:18;;;;;;;5.10;1.23;;;;;;;;;;5017589;28;20598;-77
2021/03/16 11:27:44;;;;;;;3.30;1.00;;;;;;;;;;5033816;28;20188;-77
2021/03/16 11:30:11;;;;;;;6.13;1.60;;;;;;;;;;5017044;28;20188;-76
2021/03/16 11:32:38;;;;;;;4.37;1.33;;;;;;;;;;5032693;28;20276;-77
2021/03/16 11:35:04;;;;;;;4.73;1.10;;;;;;;;;;5030954;28;20190;-76
2021/03/16 11:37:30;;;;;;;7.13;1.50;;;;;;;;;;5030681;28;20216;-76
2021/03/16 11:39:57;;;;;;;8.20;1.40;;;;;;;;;;5014705;28;20182;-77
2021/03/16 11:42:23;;;;;;;4.00;1.10;;;;;;;;;;5031379;28;20202;-76
2021/03/16 11:44:49;;;;;;;4.50;1.10;;;;;;;;;;5031068;28;20647;-75
2021/03/16 11:47:16;;;;;;;3.53;0.83;;;;;;;;;;5015085;28;20217;-75
2021/03/16 11:49:43;;;;;;;3.83;1.10;;;;;;;;;;5014408;28;20186;-73
2021/03/16 11:52:09;;;;;;;5.30;1.03;;;;;;;;;;5030697;28;20197;-74
2021/03/16 11:54:35;;;;;;;4.47;1.10;;;;;;;;;;5030687;28;20181;-72
2021/03/16 11:57:02;;;;;;;3.53;1.10;;;;;;;;;;5030962;28;20260;-73
2021/03/16 11:59:28;;;;;;;4.03;0.80;;;;;;;;;;5031015;28;20214;-75
2021/03/16 12:01:57;;;;;;;4.33;0.90;;;;;;;;;;5015269;28;20182;-77
2021/03/16 12:04:25;;;;;;;3.57;1.10;;;;;;;;;;5033295;28;20650;-77
2021/03/16 12:06:52;;;;;;;4.63;1.30;;;;;;;;;;5030622;28;20305;-76
2021/03/16 12:09:18;;;;;;;3.83;1.07;;;;;;;;;;5030754;28;20187;-75
2021/03/16 12:11:44;;;;;;;6.20;0.97;;;;;;;;;;5030212;28;20199;-75
2021/03/16 12:14:10;;;;;;;4.27;0.70;;;;;;;;;;5031021;28;20636;-76
2021/03/16 12:16:36;;;;;;;4.27;1.30;;;;;;;;;;5030630;28;20202;-77
2021/03/16 12:19:02;;;;;;;4.33;1.07;;;;;;;;;;5031643;28;20211;-76
2021/03/16 12:21:28;;;;;;;4.00;1.20;;;;;;;;;;5030317;28;20182;-77
2021/03/16 12:23:54;;;;;;;4.63;0.80;;;;;;;;;;5030577;28;20183;-76
2021/03/16 12:26:20;;;;;;;5.30;0.90;;;;;;;;;;5030282;28;20312;-76
2021/03/16 12:28:47;;;;;;;3.90;1.30;;;;;;;;;;5030111;28;20186;-77
2021/03/16 12:31:13;;;;;;;3.83;0.87;;;;;;;;;;5030304;28;20193;-76
2021/03/16 12:33:39;;;;;;;6.50;1.30;;;;;;;;;;5030298;28;20190;-76
2021/03/16 12:36:05;;;;;;;2.73;1.03;;;;;;;;;;5030399;28;20267;-76
2021/03/16 12:38:31;;;;;;;5.50;1.17;;;;;;;;;;5031150;28;20203;-77
2021/03/16 12:40:58;;;;;;;5.13;1.10;;;;;;;;;;5030459;28;20175;-77
2021/03/16 12:43:24;;;;;;;3.80;1.10;;;;;;;;;;5031615;28;20193;-76
2021/03/16 12:45:50;;;;;;;4.80;0.97;;;;;;;;;;5028312;28;20210;-76
2021/03/16 12:48:16;;;;;;;4.70;1.10;;;;;;;;;;5017067;28;20565;-76
2021/03/16 12:50:44;;;;;;;2.53;0.90;;;;;;;;;;5033706;28;20206;-77
2021/03/16 12:53:10;;;;;;;2.83;0.70;;;;;;;;;;5035223;28;20639;-77
2021/03/16 12:55:36;;;;;;;5.43;1.00;;;;;;;;;;5028244;28;20268;-77
2021/03/16 12:58:02;;;;;;;4.17;0.80;;;;;;;;;;5028345;28;20303;-77
2021/03/16 13:00:28;;;;;;;3.03;0.87;;;;;;;;;;5031732;28;20181;-76
2021/03/16 13:02:54;;;;;;;4.60;1.20;;;;;;;;;;5033723;28;20723;-76
2021/03/16 13:05:20;;;;;;;4.40;0.90;;;;;;;;;;5018958;28;20179;-75
2021/03/16 13:07:46;;;;;;;6.30;1.10;;;;;;;;;;5025608;28;20206;-77
2021/03/16 13:10:13;;;;;;;6.30;1.07;;;;;;;;;;5009468;28;20701;-76
2021/03/16 13:12:39;;;;;;;6.70;1.13;;;;;;;;;;5014692;28;20226;-76
2021/03/16 13:15:06;;;;;;;8.00;1.20;;;;;;;;;;5017073;28;20651;-76
2021/03/16 13:17:33;;;;;;;5.30;1.10;;;;;;;;;;5030665;28;20632;-76
2021/03/16 13:19:59;;;;;;;3.00;1.03;;;;;;;;;;5020461;28;20175;-76
2021/03/16 13:22:25;;;;;;;4.00;1.03;;;;;;;;;;5023591;28;20187;-76
2021/03/16 13:24:51;;;;;;;5.00;1.23;;;;;;;;;;5010821;28;20661;-75
2021/03/16 13:27:17;;;;;;;6.17;1.00;;;;;;;;;;5018028;28;20199;-77
2021/03/16 13:29:44;;;;;;;6.77;1.30;;;;;;;;;;5013041;28;20192;-76
2021/03/16 13:32:10;;;;;;;6.00;1.33;;;;;;;;;;5021099;28;20201;-75
2021/03/16 13:34:36;;;;;;;6.63;1.10;;;;;;;;;;5022062;28;20256;-75
2021/03/16 13:37:03;;;;;;;4.20;1.43;;;;;;;;;;5028455;28;20199;-76
2021/03/16 13:39:29;;;;;;;4.07;1.10;;;;;;;;;;5016491;28;20321;-76
2021/03/16 13:41:55;;;;;;;5.27;1.27;;;;;;;;;;5010784;28;20183;-76
2021/03/16 13:44:21;;;;;;;7.33;1.13;;;;;;;;;;5022336;28;20261;-74
2021/03/16 13:46:47;;;;;;;6.53;1.10;;;;;;;;;;5021132;28;20677;-76
2021/03/16 13:49:13;;;;;;;3.70;1.03;;;;;;;;;;5031361;28;20189;-77
2021/03/16 13:51:38;;;;;;;7.60;1.17;;;;;;;;;;5016712;28;20206;-76
2021/03/16 13:54:05;;;;;;;7.03;1.30;;;;;;;;;;5028522;28;20194;-76
2021/03/16 13:56:31;;;;;;;5.37;1.07;;;;;;;;;;5032502;28;20198;-76
2021/03/16 13:58:57;;;;;;;6.23;1.27;;;;;;;;;;5016002;28;20687;-75
2021/03/16 14:01:23;;;;;;;5.07;1.23;;;;;;;;;;5032123;28;20186;-76
2021/03/16 14:03:49;;;;;;;6.63;1.17;;;;;;;;;;5016305;28;20190;-75
2021/03/16 14:06:16;;;;;;;4.93;1.30;;;;;;;;;;5032751;28;20773;-75
2021/03/16 14:08:42;;;;;;;6.70;1.10;;;;;;;;;;5009523;28;20248;-75
2021/03/16 14:11:08;;;;;;;7.97;1.10;;;;;;;;;;5031085;28;20233;-76
2021/03/16 14:13:34;;;;;;;4.57;1.10;;;;;;;;;;5012894;28;20191;-76
2021/03/16 14:16:01;;;;;;;7.33;1.10;;;;;;;;;;5031714;28;20744;-76
2021/03/16 14:18:27;;;;;;;6.30;1.40;;;;;;;;;;5009020;28;20822;-76
2021/03/16 14:20:54;;;;;;;5.57;1.10;;;;;;;;;;5018896;28;20208;-76
2021/03/16 14:23:20;;;;;;;5.70;1.00;;;;;;;;;;5007050;28;20528;-76
2021/03/16 14:25:46;;;;;;;4.73;1.13;;;;;;;;;;5026572;28;20198;-76
2021/03/16 14:28:12;;;;;;;7.60;1.37;;;;;;;;;;5018403;28;20198;-75
2021/03/16 14:30:38;;;;;;;5.67;1.20;;;;;;;;;;5029974;28;20186;-76
2021/03/16 14:33:04;;;;;;;7.13;1.23;;;;;;;;;;5020430;28;20261;-75
2021/03/16 14:35:31;;;;;;;6.93;1.27;;;;;;;;;;5031152;28;20185;-75